createdAt,value
2023-11-18T00:21:38.158Z,1022.82
2023-11-18T00:51:38.168Z,1022.83
2023-11-18T01:21:38.162Z,1022.9
2023-11-18T01:51:38.166Z,1023.07
2023-11-18T02:21:38.161Z,1023.2
2023-11-18T02:51:38.156Z,1023.22
2023-11-18T03:21:38.174Z,1023.43
2023-11-18T03:51:38.180Z,1023.52
2023-11-18T04:21:38.185Z,1023.51
2023-11-18T04:51:38.192Z,1023.59
2023-11-18T05:21:38.207Z,1023.4
2023-11-18T05:51:38.222Z,1023.56
2023-11-18T06:21:38.223Z,1023.67
2023-11-18T06:51:38.220Z,1023.78
2023-11-18T07:21:38.252Z,1023.86
2023-11-18T07:51:38.242Z,1024.13
2023-11-18T08:21:38.237Z,1024.43
2023-11-18T08:51:38.241Z,1024.26
2023-11-18T09:21:38.260Z,1024.36
2023-11-18T09:51:38.243Z,1024.18
2023-11-18T10:21:38.254Z,1023.98
2023-11-18T10:51:38.254Z,1024.18
2023-11-18T11:21:38.259Z,1023.91
2023-11-18T11:51:38.254Z,1023.7
2023-11-18T12:21:38.282Z,1022.84
2023-11-18T12:51:38.269Z,1022.24
2023-11-18T13:21:38.288Z,1022.17
2023-11-18T13:51:38.374Z,1021.97
2023-11-18T14:21:38.300Z,1021.67
2023-11-18T14:51:38.395Z,1021.38
2023-11-18T15:21:38.294Z,1020.81
2023-11-18T15:51:38.300Z,1020.63
2023-11-18T16:21:38.300Z,1020.95
2023-11-18T16:51:38.293Z,1020.84
2023-11-18T17:21:38.300Z,1020.43
2023-11-18T17:51:38.309Z,1020.02
2023-11-18T18:21:38.314Z,1019.52
2023-11-18T18:51:38.331Z,1018.82
2023-11-18T19:21:38.387Z,1018.89
2023-11-18T19:51:38.380Z,1018.05
2023-11-18T20:21:38.403Z,1017.22
2023-11-18T20:51:38.459Z,1017.02
2023-11-18T21:21:38.419Z,1016.82
2023-11-18T21:51:38.352Z,1016.05
2023-11-18T22:21:38.354Z,1015.75
2023-11-18T22:51:38.364Z,1015.45
2023-11-18T23:21:38.387Z,1015.23
2023-11-18T23:51:38.382Z,1014.59
